Time;durP1;ratioP1;P1;durP2;ratioP2;P2;SDS_P1;SDS_P2;PMS_P1;PMS_P2;Temp;Humidity;BMP_temperature;BMP_pressure;BME280_temperature;BME280_humidity;BME280_pressure;Samples;Min_cycle;Max_cycle;Signal;HPM_P1;HPM_P2
2021/11/23 00:02:04;;;;;;;474.30;244.95;;;;;;;-0.31;nan;101730.41;5011692;28;20247;-84
2021/11/23 00:04:29;;;;;;;277.35;155.50;;;;;;;-0.26;nan;101729.38;5013359;28;24069;-84
2021/11/23 00:06:55;;;;;;;264.30;165.37;;;;;;;-0.24;nan;101735.38;5011677;28;20123;-84
2021/11/23 00:09:20;;;;;;;123.90;103.65;;;;;;;-0.17;nan;101735.13;5010682;28;20318;-84
2021/11/23 00:11:45;;;;;;;16.85;15.25;;;;;;;-0.30;nan;101735.56;5011741;28;20033;-84
2021/11/23 00:14:10;;;;;;;166.48;101.82;;;;;;;-0.29;nan;101739.84;5017885;28;20522;-84
2021/11/23 00:16:36;;;;;;;11.48;10.00;;;;;;;-0.33;nan;101750.41;5022042;28;20098;-85
2021/11/23 00:19:01;;;;;;;8.98;4.80;;;;;;;-0.44;nan;101748.16;5011960;28;20463;-83
2021/11/23 00:21:26;;;;;;;6.93;4.68;;;;;;;-0.49;nan;101747.47;5010861;28;20038;-84
2021/11/23 00:23:52;;;;;;;8.65;4.10;;;;;;;-0.56;nan;101745.97;5012863;28;20037;-83
2021/11/23 00:26:17;;;;;;;7.45;4.35;;;;;;;-0.55;nan;101738.16;5013311;28;20083;-85
2021/11/23 00:28:42;;;;;;;7.32;4.25;;;;;;;-0.55;nan;101740.75;5011192;28;20033;-85
2021/11/23 00:31:08;;;;;;;6.70;4.25;;;;;;;-0.44;nan;101751.59;5010755;28;20044;-84
2021/11/23 00:33:40;;;;;;;7.43;4.47;;;;;;;-0.41;nan;101748.06;5012901;28;20092;-85
2021/11/23 00:36:06;;;;;;;6.65;4.63;;;;;;;-0.38;nan;101747.97;5012264;28;20038;-84
2021/11/23 00:38:31;;;;;;;7.60;4.90;;;;;;;-0.43;nan;101757.66;5011899;28;20084;-85
2021/11/23 00:40:56;;;;;;;7.60;4.97;;;;;;;-0.48;nan;101747.44;5011821;28;20097;-83
2021/11/23 00:43:22;;;;;;;7.30;4.65;;;;;;;-0.48;nan;101752.63;5012548;28;20044;-85
2021/11/23 00:45:47;;;;;;;8.10;4.75;;;;;;;-0.44;nan;101746.41;5010539;28;20113;-84
2021/11/23 00:48:12;;;;;;;8.68;4.75;;;;;;;-0.39;nan;101741.06;5011871;28;20045;-84
2021/11/23 00:50:38;;;;;;;7.38;4.38;;;;;;;-0.46;nan;101752.56;5011981;28;20375;-85
2021/11/23 00:53:07;;;;;;;11.50;4.68;;;;;;;-0.55;nan;101750.25;5013753;28;20045;-84
2021/11/23 00:55:33;;;;;;;6.32;4.60;;;;;;;-0.61;nan;101750.47;5014432;28;20095;-83
2021/11/23 00:57:58;;;;;;;8.32;4.53;;;;;;;-0.62;nan;101752.22;5010525;28;20030;-84
2021/11/23 01:00:25;;;;;;;6.32;4.32;;;;;;;-0.63;nan;101747.91;5018111;28;20041;-85
2021/11/23 01:02:50;;;;;;;7.55;4.68;;;;;;;-0.62;nan;101744.44;5013488;28;20038;-83
2021/11/23 01:05:16;;;;;;;8.43;4.80;;;;;;;-0.64;nan;101741.03;5010924;28;20496;-85
2021/11/23 01:07:42;;;;;;;7.47;4.60;;;;;;;-0.73;nan;101747.38;5017183;28;20107;-84
2021/11/23 01:10:09;;;;;;;8.90;4.20;;;;;;;-0.72;nan;101748.22;5012633;28;20121;-84
2021/11/23 01:12:35;;;;;;;6.38;4.15;;;;;;;-0.73;nan;101739.56;5010455;28;20046;-84
2021/11/23 01:15:01;;;;;;;6.78;4.43;;;;;;;-0.77;nan;101735.38;5010653;28;20184;-83
2021/11/23 01:17:27;;;;;;;8.13;5.07;;;;;;;-0.72;nan;101733.47;5012653;28;20088;-85
2021/11/23 01:19:52;;;;;;;9.57;4.50;;;;;;;-0.73;nan;101736.97;5011266;28;20089;-83
2021/11/23 01:22:17;;;;;;;6.30;4.15;;;;;;;-0.81;nan;101735.53;5010326;28;20045;-85
2021/11/23 01:24:43;;;;;;;7.10;4.72;;;;;;;-0.91;nan;101732.38;5015341;28;20042;-83
2021/11/23 01:27:08;;;;;;;5.93;4.28;;;;;;;-0.90;nan;101734.09;5017181;28;20038;-82
2021/11/23 01:29:35;;;;;;;7.03;4.72;;;;;;;-0.87;nan;101733.97;5015287;28;20026;-84
2021/11/23 01:32:00;;;;;;;9.20;5.03;;;;;;;-0.81;nan;101733.78;5017464;28;20026;-83
2021/11/23 01:34:26;;;;;;;8.32;4.82;;;;;;;-0.84;nan;101735.63;5016986;28;20049;-84
2021/11/23 01:36:51;;;;;;;7.35;5.00;;;;;;;-0.96;nan;101739.47;5018113;28;20072;-83
2021/11/23 01:39:17;;;;;;;6.72;4.70;;;;;;;-0.95;nan;101748.97;5017099;28;20050;-84
2021/11/23 01:41:42;;;;;;;8.63;4.75;;;;;;;-1.03;nan;101740.53;5017775;28;20034;-84
2021/11/23 01:44:09;;;;;;;7.40;4.80;;;;;;;-0.97;nan;101748.16;5017240;28;20141;-83
2021/11/23 01:46:34;;;;;;;6.68;4.75;;;;;;;-0.95;nan;101754.16;5016466;28;20034;-83
2021/11/23 01:48:59;;;;;;;6.78;4.28;;;;;;;-0.99;nan;101749.94;5022906;28;20108;-82
2021/11/23 01:51:25;;;;;;;6.50;4.05;;;;;;;-0.93;nan;101754.94;5024324;28;20038;-85
2021/11/23 01:53:50;;;;;;;5.45;3.83;;;;;;;-0.90;nan;101741.88;5018745;28;20095;-85
2021/11/23 01:56:16;;;;;;;5.85;4.10;;;;;;;-0.95;nan;101752.41;5016601;28;20488;-85
2021/11/23 01:58:43;;;;;;;6.10;4.40;;;;;;;-1.03;nan;101753.53;5015305;28;20026;-84
2021/11/23 02:01:09;;;;;;;6.50;4.13;;;;;;;-1.01;nan;101760.38;5016109;28;20403;-85
2021/11/23 02:03:36;;;;;;;5.60;4.35;;;;;;;-0.99;nan;101765.53;5015142;28;20129;-84
2021/11/23 02:06:02;;;;;;;7.38;4.35;;;;;;;-0.94;nan;101771.41;5016369;28;20034;-86
2021/11/23 02:08:27;;;;;;;7.05;4.78;;;;;;;-0.94;nan;101761.88;5015949;28;20041;-85
2021/11/23 02:10:54;;;;;;;6.03;4.22;;;;;;;-1.04;nan;101763.06;5016668;28;20038;-83
2021/11/23 02:13:19;;;;;;;6.65;4.10;;;;;;;-1.10;nan;101771.91;5014712;28;20033;-83
2021/11/23 02:15:45;;;;;;;6.40;4.50;;;;;;;-1.05;nan;101765.69;5013210;28;20030;-85
2021/11/23 02:18:19;;;;;;;7.97;4.28;;;;;;;-1.08;nan;101767.47;5015065;28;20045;-83
2021/11/23 02:20:45;;;;;;;6.45;4.60;;;;;;;-1.18;nan;101760.88;5010120;28;20084;-82
2021/11/23 02:23:11;;;;;;;9.23;5.00;;;;;;;-1.13;nan;101759.00;5014910;28;20038;-84
2021/11/23 02:25:36;;;;;;;6.55;4.50;;;;;;;-1.23;nan;101770.56;5015738;28;20038;-86
2021/11/23 02:28:06;;;;;;;7.45;4.45;;;;;;;-1.23;nan;101767.97;5014598;28;20229;-85
2021/11/23 02:30:35;;;;;;;6.97;4.82;;;;;;;-1.31;nan;101767.34;5015057;28;20042;-86
2021/11/23 02:33:00;;;;;;;7.70;4.90;;;;;;;-1.42;nan;101774.59;5016458;28;20030;-85
2021/11/23 02:35:26;;;;;;;6.07;4.15;;;;;;;-1.34;nan;101767.41;5020338;28;20034;-84
2021/11/23 02:37:55;;;;;;;6.20;4.43;;;;;;;-1.27;nan;101768.09;5015393;28;20034;-84
2021/11/23 02:40:22;;;;;;;6.55;4.60;;;;;;;-1.30;nan;101758.66;5014070;28;20264;-83
2021/11/23 02:42:48;;;;;;;6.85;4.40;;;;;;;-1.33;nan;101756.16;5013354;28;20038;-83
2021/11/23 02:45:17;;;;;;;6.55;4.68;;;;;;;-1.36;nan;101748.44;5015183;28;20517;-83
2021/11/23 02:47:43;;;;;;;6.40;4.53;;;;;;;-1.35;nan;101748.41;5015420;28;20030;-84
2021/11/23 02:50:12;;;;;;;6.75;4.60;;;;;;;-1.29;nan;101752.56;5013837;28;20053;-83
2021/11/23 02:52:37;;;;;;;6.40;4.25;;;;;;;-1.33;nan;101758.75;5014552;28;20030;-84
2021/11/23 02:55:04;;;;;;;6.38;4.30;;;;;;;-1.41;nan;101756.38;5015803;28;20037;-83
2021/11/23 02:57:33;;;;;;;6.53;4.40;;;;;;;-1.45;nan;101759.09;5013063;28;20030;-83
2021/11/23 02:59:59;;;;;;;7.15;4.50;;;;;;;-1.46;nan;101760.84;5013477;28;20108;-84
2021/11/23 03:02:25;;;;;;;6.22;4.00;;;;;;;-1.38;nan;101761.47;5011802;28;20112;-84
2021/11/23 03:04:52;;;;;;;6.88;4.60;;;;;;;-1.43;nan;101765.09;5017413;28;20033;-83
2021/11/23 03:07:18;;;;;;;6.07;4.50;;;;;;;-1.54;nan;101757.63;5016076;28;20034;-84
2021/11/23 03:09:44;;;;;;;6.65;4.50;;;;;;;-1.53;nan;101760.16;5012921;28;20037;-83
2021/11/23 03:12:17;;;;;;;7.00;4.60;;;;;;;-1.51;nan;101747.16;5012184;28;20041;-83
2021/11/23 03:14:43;;;;;;;6.70;4.35;;;;;;;-1.40;nan;101750.28;5011758;28;20074;-82
2021/11/23 03:17:09;;;;;;;6.95;4.57;;;;;;;-1.46;nan;101745.28;5013163;28;20038;-83
2021/11/23 03:19:35;;;;;;;11.15;4.50;;;;;;;-1.40;nan;101749.44;5012118;28;20387;-83
2021/11/23 03:22:02;;;;;;;6.10;4.30;;;;;;;-1.45;nan;101741.81;5012591;28;20040;-84
2021/11/23 03:24:27;;;;;;;5.80;4.05;;;;;;;-1.40;nan;101744.25;5010198;28;20869;-84
2021/11/23 03:26:53;;;;;;;5.63;4.00;;;;;;;-1.49;nan;101742.78;5010497;28;20168;-83
2021/11/23 03:29:18;;;;;;;8.10;4.32;;;;;;;-1.59;nan;101741.34;5012366;28;20070;-83
2021/11/23 03:31:43;;;;;;;5.97;3.80;;;;;;;-1.52;nan;101748.91;5012487;28;20116;-82
2021/11/23 03:34:08;;;;;;;5.25;3.53;;;;;;;-1.36;nan;101735.47;5012493;28;20034;-83
2021/11/23 03:36:39;;;;;;;4.80;3.58;;;;;;;-1.19;nan;101741.03;5011988;28;20033;-83
2021/11/23 03:39:05;;;;;;;;;;;;;;;-0.97;nan;101746.41;5014654;28;20491;-83
2021/11/23 03:41:30;;;;;;;5.70;3.60;;;;;;;-0.81;nan;101744.19;5013606;28;19917;-85
2021/11/23 03:43:55;;;;;;;6.10;3.33;;;;;;;-0.70;nan;101739.47;5011714;28;20499;-84
2021/11/23 03:46:20;;;;;;;5.00;3.55;;;;;;;-0.62;nan;101748.75;5011778;28;20061;-83
2021/11/23 03:48:46;;;;;;;5.43;3.38;;;;;;;-0.65;nan;101742.75;5021992;28;20038;-83
2021/11/23 03:51:11;;;;;;;4.43;3.17;;;;;;;-0.74;nan;101742.22;5010954;28;20034;-85
2021/11/23 03:53:36;;;;;;;4.40;2.80;;;;;;;-0.79;nan;101734.56;5013500;28;20042;-84
2021/11/23 03:56:02;;;;;;;4.95;3.08;;;;;;;-0.79;nan;101737.16;5013002;28;20582;-83
2021/11/23 03:58:27;;;;;;;5.28;3.60;;;;;;;-0.68;nan;101739.44;5012621;28;20029;-84
2021/11/23 04:00:52;;;;;;;5.00;3.53;;;;;;;-0.59;nan;101744.34;5009476;28;20049;-83
2021/11/23 04:03:18;;;;;;;5.10;3.08;;;;;;;-0.54;nan;101742.44;5011010;28;20037;-84
2021/11/23 04:05:43;;;;;;;6.05;3.15;;;;;;;-0.53;nan;101730.28;5014066;28;20044;-84
2021/11/23 04:08:08;;;;;;;5.05;3.55;;;;;;;-0.51;nan;101744.91;5012542;28;20041;-83
2021/11/23 04:10:33;;;;;;;5.20;3.60;;;;;;;-0.47;nan;101745.69;5010491;28;20050;-84
2021/11/23 04:12:59;;;;;;;4.68;3.50;;;;;;;-0.47;nan;101750.88;5010809;28;20040;-84
2021/11/23 04:15:24;;;;;;;5.10;3.22;;;;;;;-0.50;nan;101743.16;5013693;28;20092;-84
2021/11/23 04:17:50;;;;;;;4.72;3.40;;;;;;;-0.49;nan;101737.09;5011739;28;20361;-85
2021/11/23 04:20:16;;;;;;;5.55;3.60;;;;;;;-0.47;nan;101737.88;5010310;28;20034;-84
2021/11/23 04:22:41;;;;;;;5.88;3.97;;;;;;;-0.39;nan;101738.47;5013698;28;20025;-83
2021/11/23 04:25:08;;;;;;;4.80;3.45;;;;;;;-0.34;nan;101744.34;5012482;28;20038;-85
2021/11/23 04:27:33;;;;;;;5.57;3.90;;;;;;;-0.27;nan;101755.41;5013254;28;20037;-84
2021/11/23 04:29:58;;;;;;;5.30;3.75;;;;;;;-0.29;nan;101745.03;5014792;28;20053;-85
2021/11/23 04:32:24;;;;;;;5.35;3.72;;;;;;;-0.30;nan;101735.56;5021055;28;20097;-85
2021/11/23 04:34:49;;;;;;;5.80;3.83;;;;;;;-0.20;nan;101751.69;5017347;28;20107;-83
2021/11/23 04:37:15;;;;;;;5.70;3.55;;;;;;;-0.14;nan;101755.81;5009706;28;20029;-84
2021/11/23 04:39:41;;;;;;;5.72;3.95;;;;;;;-0.04;nan;101752.00;5009881;28;20534;-83
2021/11/23 04:42:06;;;;;;;5.80;3.65;;;;;;;-0.06;nan;101753.81;5011169;28;20029;-82
2021/11/23 04:44:31;;;;;;;4.53;2.88;;;;;;;-0.13;nan;101753.16;5010157;28;20125;-84
2021/11/23 04:46:57;;;;;;;4.72;3.33;;;;;;;-0.14;nan;101758.41;5009718;28;20038;-85
2021/11/23 04:49:22;;;;;;;5.63;3.45;;;;;;;-0.14;nan;101756.69;5010889;28;20042;-84
2021/11/23 04:51:48;;;;;;;5.20;3.50;;;;;;;-0.15;nan;101759.31;5011715;28;20041;-84
2021/11/23 04:54:13;;;;;;;5.43;3.50;;;;;;;-0.26;nan;101763.16;5010228;28;20030;-84
2021/11/23 04:56:39;;;;;;;7.38;3.95;;;;;;;-0.17;nan;101776.72;5010237;28;20500;-83
2021/11/23 04:59:04;;;;;;;4.85;3.55;;;;;;;-0.15;nan;101764.53;5010583;28;20504;-83
2021/11/23 05:01:29;;;;;;;4.18;3.00;;;;;;;-0.17;nan;101776.72;5012538;28;20508;-84
2021/11/23 05:03:55;;;;;;;5.88;3.10;;;;;;;-0.12;nan;101772.22;5011092;28;20038;-83
2021/11/23 05:06:21;;;;;;;5.20;3.30;;;;;;;-0.07;nan;101778.97;5009392;28;20417;-83
2021/11/23 05:08:46;;;;;;;6.30;3.25;;;;;;;-0.11;nan;101785.16;5013663;28;20052;-84
2021/11/23 05:11:11;;;;;;;4.25;3.05;;;;;;;-0.04;nan;101776.25;5011858;28;20351;-84
2021/11/23 05:13:37;;;;;;;4.50;3.47;;;;;;;-0.06;nan;101772.00;5014858;28;20038;-83
2021/11/23 05:16:04;;;;;;;5.55;3.58;;;;;;;-0.12;nan;101780.00;5012248;28;20038;-84
2021/11/23 05:18:29;;;;;;;6.40;3.50;;;;;;;-0.15;nan;101791.38;5012866;28;20185;-84
2021/11/23 05:20:54;;;;;;;6.13;3.55;;;;;;;-0.17;nan;101781.91;5012970;28;20034;-84
2021/11/23 05:23:20;;;;;;;4.93;3.47;;;;;;;-0.14;nan;101776.63;5011243;28;20525;-85
2021/11/23 05:25:45;;;;;;;7.80;4.40;;;;;;;-0.09;nan;101777.31;5011470;28;20124;-84
2021/11/23 05:28:10;;;;;;;6.18;3.63;;;;;;;-0.18;nan;101780.25;5016967;28;20034;-84
2021/11/23 05:30:36;;;;;;;6.53;3.97;;;;;;;-0.27;nan;101782.22;5011908;28;20039;-82
2021/11/23 05:33:01;;;;;;;5.80;4.18;;;;;;;-0.28;nan;101772.75;5016905;28;20557;-85
2021/11/23 05:35:26;;;;;;;5.78;4.20;;;;;;;-0.31;nan;101783.25;5008994;28;20481;-84
2021/11/23 05:37:52;;;;;;;6.28;4.00;;;;;;;-0.16;nan;101784.47;5009460;28;20045;-82
2021/11/23 05:40:17;;;;;;;6.53;3.80;;;;;;;-0.15;nan;101783.56;5010820;28;20029;-85
2021/11/23 05:42:42;;;;;;;6.13;3.88;;;;;;;-0.07;nan;101785.91;5016081;28;20095;-83
2021/11/23 05:45:10;;;;;;;6.88;3.92;;;;;;;0.03;nan;101794.25;5009203;28;20042;-84
2021/11/23 05:47:36;;;;;;;6.65;3.95;;;;;;;-0.03;nan;101784.91;5010003;28;20037;-84
2021/11/23 05:50:03;;;;;;;5.68;3.55;;;;;;;-0.08;nan;101787.66;5018156;28;20495;-84
2021/11/23 05:52:28;;;;;;;7.00;4.10;;;;;;;-0.06;nan;101793.66;5009774;28;20045;-84
2021/11/23 05:54:54;;;;;;;6.45;4.00;;;;;;;-0.06;nan;101787.63;5012564;28;20025;-84
2021/11/23 05:57:19;;;;;;;5.63;3.75;;;;;;;-0.07;nan;101789.38;5010788;28;20030;-84
2021/11/23 05:59:44;;;;;;;5.22;3.85;;;;;;;-0.09;nan;101787.72;5010038;28;20084;-84
2021/11/23 06:02:10;;;;;;;6.55;3.72;;;;;;;-0.19;nan;101794.13;5016454;28;20514;-84
2021/11/23 06:04:35;;;;;;;5.00;3.60;;;;;;;-0.28;nan;101790.09;5010160;28;20377;-84
2021/11/23 06:07:01;;;;;;;6.70;3.92;;;;;;;-0.30;nan;101797.94;5011675;28;20029;-84
2021/11/23 06:09:26;;;;;;;5.30;3.63;;;;;;;-0.38;nan;101794.75;5011221;28;20034;-84
2021/11/23 06:11:52;;;;;;;5.93;3.67;;;;;;;-0.36;nan;101792.09;5011038;28;20519;-83
2021/11/23 06:14:17;;;;;;;7.63;3.80;;;;;;;-0.40;nan;101795.69;5013241;28;20061;-83
2021/11/23 06:16:46;;;;;;;8.27;3.63;;;;;;;-0.41;nan;101799.19;5014737;28;20026;-84
2021/11/23 06:19:13;;;;;;;7.03;3.72;;;;;;;-0.42;nan;101798.34;5012300;28;20040;-82
2021/11/23 06:21:40;;;;;;;5.43;3.65;;;;;;;-0.44;nan;101802.72;5012725;28;20049;-84
2021/11/23 06:24:05;;;;;;;8.07;4.70;;;;;;;-0.48;nan;101807.19;5014245;28;20099;-84
2021/11/23 06:26:31;;;;;;;6.25;4.07;;;;;;;-0.41;nan;101804.38;5012440;28;20046;-84
2021/11/23 06:28:56;;;;;;;6.47;3.80;;;;;;;-0.48;nan;101808.91;5013051;28;20077;-83
2021/11/23 06:31:21;;;;;;;6.68;4.10;;;;;;;-0.49;nan;101807.22;5013791;28;20049;-85
2021/11/23 06:33:47;;;;;;;7.47;3.90;;;;;;;-0.50;nan;101813.31;5013364;28;20117;-84
2021/11/23 06:36:13;;;;;;;6.68;4.15;;;;;;;-0.54;nan;101815.16;5011179;28;20044;-84
2021/11/23 06:38:38;;;;;;;6.43;4.13;;;;;;;-0.50;nan;101808.13;5010516;28;20034;-84
2021/11/23 06:41:04;;;;;;;6.10;3.88;;;;;;;-0.50;nan;101813.31;5013980;28;20101;-84
2021/11/23 06:43:29;;;;;;;5.70;3.92;;;;;;;-0.46;nan;101807.13;5013457;28;20209;-84
2021/11/23 06:45:55;;;;;;;7.07;3.95;;;;;;;-0.54;nan;101804.78;5012434;28;20044;-84
2021/11/23 06:48:21;;;;;;;4.93;3.60;;;;;;;-0.50;nan;101810.72;5011923;28;20097;-84
2021/11/23 06:50:46;;;;;;;5.63;3.35;;;;;;;-0.49;nan;101810.69;5013424;28;20040;-84
2021/11/23 06:53:12;;;;;;;4.75;3.00;;;;;;;-0.34;nan;101813.69;5012181;28;20041;-82
2021/11/23 06:55:39;;;;;;;5.30;3.42;;;;;;;-0.27;nan;101808.22;5013188;28;20455;-84
2021/11/23 06:58:05;;;;;;;9.27;3.50;;;;;;;-0.12;nan;101813.81;5015111;28;20037;-84
2021/11/23 07:00:31;;;;;;;5.97;3.03;;;;;;;-0.04;nan;101817.03;4995751;28;20042;-82
2021/11/23 07:02:56;;;;;;;7.20;3.90;;;;;;;0.05;nan;101829.72;4994026;28;20034;-85
2021/11/23 07:05:22;;;;;;;5.30;3.13;;;;;;;0.03;nan;101820.28;5006023;28;20037;-85
2021/11/23 07:07:47;;;;;;;6.65;3.20;;;;;;;-0.02;nan;101828.22;5008833;28;20120;-84
2021/11/23 07:10:14;;;;;;;5.65;3.28;;;;;;;-0.03;nan;101829.09;5013675;28;20034;-85
2021/11/23 07:12:40;;;;;;;5.60;3.60;;;;;;;-0.15;nan;101829.53;5015350;28;20037;-85
2021/11/23 07:15:07;;;;;;;4.90;3.42;;;;;;;-0.22;nan;101832.31;5017284;28;20049;-84
2021/11/23 07:17:33;;;;;;;5.53;3.60;;;;;;;-0.25;nan;101831.56;5023833;28;20041;-83
2021/11/23 07:19:58;;;;;;;6.38;3.40;;;;;;;-0.25;nan;101848.00;5025575;28;20026;-83
2021/11/23 07:22:24;;;;;;;5.63;3.60;;;;;;;-0.37;nan;101845.81;5014884;28;20033;-84
2021/11/23 07:24:49;;;;;;;5.20;3.78;;;;;;;-0.33;nan;101854.38;5013732;28;20514;-83
2021/11/23 07:27:15;;;;;;;7.63;3.70;;;;;;;-0.41;nan;101853.75;5012096;28;20515;-83
2021/11/23 07:29:40;;;;;;;6.93;3.58;;;;;;;-0.34;nan;101856.09;5012436;28;20435;-84
2021/11/23 07:32:07;;;;;;;4.53;3.17;;;;;;;-0.46;nan;101859.94;5019666;28;20116;-84
2021/11/23 07:34:33;;;;;;;4.75;3.08;;;;;;;-0.53;nan;101855.84;5013386;28;20038;-84
2021/11/23 07:36:59;;;;;;;7.05;4.13;;;;;;;-0.50;nan;101860.06;5011829;28;20030;-84
2021/11/23 07:39:27;;;;;;;5.45;3.70;;;;;;;-0.33;nan;101868.22;5013923;28;20454;-82
2021/11/23 07:41:52;;;;;;;6.38;3.70;;;;;;;-0.17;nan;101863.34;5011825;28;20049;-84
2021/11/23 07:44:18;;;;;;;4.65;3.33;;;;;;;-0.06;nan;101865.63;5012513;28;20501;-80
2021/11/23 07:46:43;;;;;;;5.43;3.50;;;;;;;0.09;nan;101859.88;5012939;28;20454;-82
2021/11/23 07:49:09;;;;;;;6.70;3.22;;;;;;;0.23;nan;101863.78;5013559;28;20042;-84
2021/11/23 07:51:36;;;;;;;5.25;3.50;;;;;;;0.20;nan;101856.94;5013555;28;20141;-81
2021/11/23 07:54:01;;;;;;;5.80;3.60;;;;;;;0.25;nan;101875.00;5013873;28;20030;-83
2021/11/23 07:56:27;;;;;;;4.85;3.30;;;;;;;0.16;nan;101873.53;5013451;28;20423;-83
2021/11/23 07:58:52;;;;;;;6.80;3.70;;;;;;;0.15;nan;101874.47;5013550;28;20169;-83
2021/11/23 08:01:18;;;;;;;6.97;4.20;;;;;;;0.08;nan;101876.41;5014694;28;20037;-82
2021/11/23 08:03:43;;;;;;;9.50;5.22;;;;;;;-0.06;nan;101876.03;5013619;28;20042;-83
2021/11/23 08:06:09;;;;;;;9.45;5.97;;;;;;;-0.12;nan;101878.81;5014481;28;20042;-83
2021/11/23 08:08:35;;;;;;;10.23;5.80;;;;;;;-0.26;nan;101890.50;5019596;28;20168;-80
2021/11/23 08:11:00;;;;;;;9.60;5.47;;;;;;;-0.31;nan;101886.34;5023307;28;20080;-83
2021/11/23 08:13:26;;;;;;;8.23;5.22;;;;;;;-0.46;nan;101901.50;5027497;28;20098;-83
2021/11/23 08:15:51;;;;;;;7.72;5.25;;;;;;;-0.36;nan;101899.47;5017471;28;20034;-82
2021/11/23 08:18:17;;;;;;;10.30;5.85;;;;;;;-0.34;nan;101910.69;5015452;28;20042;-83
2021/11/23 08:20:43;;;;;;;8.82;5.97;;;;;;;-0.26;nan;101905.28;5013962;28;20037;-82
2021/11/23 08:23:09;;;;;;;9.50;5.60;;;;;;;-0.25;nan;101900.00;5013898;28;20124;-82
2021/11/23 08:25:34;;;;;;;10.55;5.40;;;;;;;-0.24;nan;101899.13;5013468;28;20061;-83
2021/11/23 08:28:00;;;;;;;7.93;5.05;;;;;;;-0.25;nan;101900.00;5014485;28;20045;-82
2021/11/23 08:30:26;;;;;;;8.43;5.40;;;;;;;-0.31;nan;101908.00;5012796;28;20077;-82
2021/11/23 08:32:51;;;;;;;9.70;4.80;;;;;;;-0.17;nan;101904.09;5013469;28;20026;-82
2021/11/23 08:35:17;;;;;;;7.28;4.85;;;;;;;-0.14;nan;101904.88;5011794;28;20029;-83
2021/11/23 08:37:43;;;;;;;7.05;4.57;;;;;;;-0.17;nan;101910.16;5012169;28;20085;-84
2021/11/23 08:40:09;;;;;;;7.68;4.90;;;;;;;-0.16;nan;101909.28;5017583;28;20608;-82
2021/11/23 08:42:35;;;;;;;6.53;4.53;;;;;;;-0.08;nan;101915.06;5012914;28;20392;-83
2021/11/23 08:45:01;;;;;;;7.38;4.72;;;;;;;0.02;nan;101906.97;5010803;28;20022;-83
2021/11/23 08:47:26;;;;;;;7.60;4.47;;;;;;;0.02;nan;101902.59;5012615;28;20044;-83
2021/11/23 08:49:53;;;;;;;7.32;4.93;;;;;;;0.13;nan;101899.66;5012710;28;20034;-83
2021/11/23 08:52:19;;;;;;;7.88;5.05;;;;;;;0.21;nan;101897.66;5009975;28;20030;-83
2021/11/23 08:54:45;;;;;;;6.82;4.78;;;;;;;0.20;nan;101904.59;5012547;28;20045;-83
2021/11/23 08:57:13;;;;;;;10.43;5.28;;;;;;;0.36;nan;101909.31;5024572;28;20093;-83
2021/11/23 08:59:43;;;;;;;13.73;6.97;;;;;;;0.40;nan;101908.28;4982923;28;20522;-83
2021/11/23 09:02:40;;;;;;;13.43;6.50;;;;;;;0.51;nan;101913.13;5007428;28;20038;-84
2021/11/23 09:05:31;;;;;;;10.40;5.75;;;;;;;0.46;nan;101908.09;4977541;28;20126;-84
2021/11/23 09:08:01;;;;;;;9.82;5.68;;;;;;;0.47;nan;101909.78;5027028;28;20045;-83
2021/11/23 09:10:29;;;;;;;12.40;6.10;;;;;;;0.66;nan;101906.53;5026921;28;20075;-83
2021/11/23 09:12:57;;;;;;;10.88;5.82;;;;;;;0.73;nan;101900.22;5033705;28;20040;-83
2021/11/23 09:15:24;;;;;;;7.47;5.22;;;;;;;0.75;nan;101890.59;5025383;28;20037;-83
2021/11/23 09:17:50;;;;;;;7.57;5.20;;;;;;;0.81;nan;101899.03;5025121;28;20030;-83
2021/11/23 09:20:18;;;;;;;9.50;4.93;;;;;;;0.83;nan;101901.56;5024060;28;20033;-83
2021/11/23 09:22:45;;;;;;;6.18;4.15;;;;;;;0.93;nan;101904.69;5024497;28;20187;-85
2021/11/23 09:25:12;;;;;;;6.75;4.40;;;;;;;1.05;nan;101902.50;5032288;28;20070;-84
2021/11/23 09:27:38;;;;;;;6.90;3.80;;;;;;;1.13;nan;101906.59;5022068;28;20101;-83
2021/11/23 09:30:06;;;;;;;7.13;4.07;;;;;;;1.15;nan;101907.38;5022302;28;20038;-84
2021/11/23 09:32:32;;;;;;;8.68;4.30;;;;;;;1.17;nan;101900.31;5004240;28;20544;-83
2021/11/23 09:34:59;;;;;;;7.60;4.35;;;;;;;1.31;nan;101898.09;5002800;28;20041;-83
2021/11/23 09:37:24;;;;;;;7.63;4.05;;;;;;;1.40;nan;101900.31;5012002;28;20042;-83
2021/11/23 09:39:51;;;;;;;9.45;4.32;;;;;;;1.47;nan;101898.31;5003797;28;20080;-84
2021/11/23 09:42:16;;;;;;;4.97;4.00;;;;;;;1.47;nan;101906.13;5020558;28;20034;-84
2021/11/23 09:44:43;;;;;;;7.00;4.10;;;;;;;1.52;nan;101898.16;5022600;28;20049;-83
2021/11/23 09:47:09;;;;;;;6.28;4.32;;;;;;;1.53;nan;101898.09;5026182;28;20054;-83
2021/11/23 09:49:34;;;;;;;6.28;4.35;;;;;;;1.66;nan;101893.25;5028127;28;20094;-83
2021/11/23 09:52:00;;;;;;;6.20;4.00;;;;;;;1.77;nan;101900.66;5024858;28;20034;-84
2021/11/23 09:54:25;;;;;;;5.47;3.60;;;;;;;1.88;nan;101899.31;5028697;28;20053;-83
2021/11/23 09:56:51;;;;;;;7.95;4.50;;;;;;;1.99;nan;101893.63;5024961;28;20116;-83
2021/11/23 09:59:17;;;;;;;6.95;4.20;;;;;;;2.01;nan;101896.19;5025980;28;20519;-84
2021/11/23 10:01:55;;;;;;;8.65;4.00;;;;;;;2.02;nan;101885.69;5020661;28;20038;-83
2021/11/23 10:04:23;;;;;;;6.63;3.90;;;;;;;2.12;nan;101881.78;5022121;28;20030;-84
2021/11/23 10:07:07;;;;;;;6.35;3.78;;;;;;;2.14;nan;101886.94;5025894;28;20034;-83
2021/11/23 10:09:37;;;;;;;6.57;4.55;;;;;;;2.20;nan;101883.25;5026745;28;20527;-84
2021/11/23 10:12:21;;;;;;;7.82;4.35;;;;;;;2.32;nan;101878.34;5027067;28;20042;-83
2021/11/23 10:15:12;;;;;;;6.28;3.85;;;;;;;2.33;nan;101881.78;5021309;28;20041;-84
2021/11/23 10:17:40;;;;;;;5.88;4.05;;;;;;;2.46;nan;101887.34;5033392;28;20045;-84
2021/11/23 10:20:22;;;;;;;5.90;3.53;;;;;;;2.44;nan;101879.56;5032470;28;20177;-84
2021/11/23 10:22:48;;;;;;;7.00;4.30;;;;;;;2.44;nan;101887.41;5029061;28;20026;-84
2021/11/23 10:25:13;;;;;;;8.27;4.20;;;;;;;2.43;nan;101879.63;5028071;28;20113;-84
2021/11/23 10:27:43;;;;;;;8.25;4.97;;;;;;;2.52;nan;101881.84;5026992;28;20041;-84
2021/11/23 10:30:09;;;;;;;8.37;4.80;;;;;;;2.50;nan;101887.16;5032325;28;20029;-83
2021/11/23 10:32:51;;;;;;;7.72;4.38;;;;;;;2.62;nan;101883.16;5022723;28;20034;-83
2021/11/23 10:35:25;;;;;;;9.60;5.20;;;;;;;2.71;nan;101880.13;5023716;28;20133;-83
2021/11/23 10:37:51;;;;;;;6.78;4.50;;;;;;;2.82;nan;101881.44;5027401;28;20197;-83
2021/11/23 10:40:27;;;;;;;7.55;4.88;;;;;;;2.89;nan;101883.69;5022386;28;20030;-83
2021/11/23 10:42:56;;;;;;;8.52;5.05;;;;;;;2.96;nan;101879.03;5023634;28;20041;-83
2021/11/23 10:45:22;;;;;;;9.55;5.03;;;;;;;2.96;nan;101874.66;5023376;28;20530;-83
2021/11/23 10:47:49;;;;;;;8.48;5.13;;;;;;;2.90;nan;101869.69;5025684;28;20034;-83
2021/11/23 10:50:18;;;;;;;7.60;4.95;;;;;;;2.88;nan;101868.06;5024831;28;20125;-83
2021/11/23 10:52:47;;;;;;;9.23;5.55;;;;;;;3.01;nan;101869.22;5017236;28;20030;-83
2021/11/23 10:55:22;;;;;;;7.88;5.25;;;;;;;3.03;nan;101869.13;5023762;28;20030;-83
2021/11/23 10:57:48;;;;;;;11.38;5.57;;;;;;;3.09;nan;101864.47;5016407;28;20038;-83
2021/11/23 11:00:14;;;;;;;8.18;5.32;;;;;;;3.13;nan;101865.22;5023620;28;20065;-82
2021/11/23 11:02:41;;;;;;;10.95;5.30;;;;;;;3.10;nan;101855.75;5032725;28;20042;-83
2021/11/23 11:05:14;;;;;;;7.78;5.50;;;;;;;3.14;nan;101851.22;5023375;28;20042;-83
2021/11/23 11:07:39;;;;;;;7.88;5.15;;;;;;;3.25;nan;101846.34;5023283;28;20030;-83
2021/11/23 11:10:06;;;;;;;12.55;7.63;;;;;;;3.33;nan;101846.81;5026330;28;20065;-82
2021/11/23 11:12:32;;;;;;;139.70;56.38;;;;;;;3.46;nan;101849.72;5006387;28;20077;-82
2021/11/23 11:14:59;;;;;;;198.63;78.97;;;;;;;3.49;nan;101844.31;5005426;28;20030;-82
2021/11/23 11:17:26;;;;;;;205.40;79.38;;;;;;;3.54;nan;101842.31;5013070;28;20484;-83
2021/11/23 11:19:52;;;;;;;;;;;;;;;3.61;nan;101837.66;5007681;28;20053;-83
2021/11/23 11:22:19;;;;;;;;;;;;;;;3.69;nan;101829.44;5006212;28;24063;-82
2021/11/23 11:25:12;;;;;;;;;;;;;;;3.74;nan;101828.31;5005939;28;19921;-82
2021/11/23 11:27:39;;;;;;;;;;;;;;;3.85;nan;101821.69;5006858;28;19953;-83
2021/11/23 11:30:25;;;;;;;;;;;;;;;4.11;nan;101822.97;5023987;28;20318;-83
2021/11/23 11:32:52;;;;;;;;;;;;;;;4.07;nan;101816.19;5024425;28;19921;-83
2021/11/23 11:35:24;;;;;;;;;;;;;;;4.22;nan;101818.91;5028272;28;20418;-83
2021/11/23 11:37:49;;;;;;;;;;;;;;;4.36;nan;101807.72;5026906;28;20382;-83
2021/11/23 11:40:25;;;;;;;;;;;;;;;4.34;nan;101803.44;5023776;28;19913;-83
2021/11/23 11:42:52;;;;;;;;;;;;;;;4.29;nan;101802.84;5024436;28;25073;-83
2021/11/23 11:45:19;;;;;;;535.70;353.08;;;;;;;4.30;nan;101799.31;5025326;28;19964;-83